Time;durP1;ratioP1;P1;durP2;ratioP2;P2;SDS_P1;SDS_P2;PMS_P1;PMS_P2;Temp;Humidity;BMP_temperature;BMP_pressure;BME280_temperature;BME280_humidity;BME280_pressure;Samples;Min_cycle;Max_cycle;Signal;HPM_P1;HPM_P2
2021/03/25 00:01:23;;;;;;;1.63;1.57;;;3.60;98.00;;;;;;5050684;28;20493;-67
2021/03/25 00:03:52;;;;;;;1.50;1.47;;;3.70;98.00;;;;;;5052975;28;20601;-66
2021/03/25 00:06:19;;;;;;;2.77;1.17;;;3.80;98.00;;;;;;5050670;28;20482;-67
2021/03/25 00:08:46;;;;;;;2.27;1.30;;;3.90;98.00;;;;;;5052835;28;20494;-66
2021/03/25 00:11:13;;;;;;;4.40;1.97;;;3.90;98.00;;;;;;5051685;28;20527;-67
2021/03/25 00:13:40;;;;;;;1.20;1.00;;;3.60;98.00;;;;;;5052896;28;20495;-66
2021/03/25 00:16:09;;;;;;;1.90;1.60;;;3.60;98.00;;;;;;5052703;28;20488;-66
2021/03/25 00:18:37;;;;;;;1.40;1.13;;;3.50;98.00;;;;;;5051091;28;20470;-66
2021/03/25 00:21:05;;;;;;;1.20;1.10;;;3.40;98.00;;;;;;5052615;28;21197;-66
2021/03/25 00:23:32;;;;;;;1.30;1.20;;;3.30;98.00;;;;;;5050517;28;20803;-66
2021/03/25 00:25:58;;;;;;;1.50;1.30;;;3.30;98.00;;;;;;5052344;28;20482;-66
2021/03/25 00:28:25;;;;;;;1.40;1.33;;;3.40;98.00;;;;;;5050105;28;20495;-66
2021/03/25 00:30:51;;;;;;;1.67;1.27;;;3.40;98.00;;;;;;5052470;28;20486;-66
2021/03/25 00:33:20;;;;;;;1.63;1.60;;;3.50;98.00;;;;;;5050618;28;20542;-66
2021/03/25 00:35:48;;;;;;;1.30;1.30;;;3.60;98.00;;;;;;5051582;28;20482;-67
2021/03/25 00:38:17;;;;;;;2.07;1.50;;;3.50;98.00;;;;;;5049942;28;20972;-66
2021/03/25 00:40:44;;;;;;;1.20;1.07;;;3.40;98.00;;;;;;5067527;28;20483;-66
2021/03/25 00:43:12;;;;;;;1.40;1.40;;;3.30;98.00;;;;;;5050048;28;20970;-66
2021/03/25 00:45:41;;;;;;;1.33;1.20;;;3.20;98.00;;;;;;5051829;28;20488;-66
2021/03/25 00:48:09;;;;;;;1.30;1.20;;;3.10;98.00;;;;;;5065205;28;20462;-66
2021/03/25 00:50:39;;;;;;;3.00;1.83;;;3.10;98.00;;;;;;5050625;28;20460;-66
2021/03/25 00:53:08;;;;;;;1.53;1.30;;;3.10;98.00;;;;;;5050839;28;20516;-66
2021/03/25 00:55:34;;;;;;;1.30;1.10;;;3.10;98.00;;;;;;5051874;28;20473;-66
2021/03/25 00:58:01;;;;;;;2.03;1.10;;;3.10;98.00;;;;;;5049468;28;20804;-66
2021/03/25 01:00:30;;;;;;;1.20;1.00;;;3.20;98.00;;;;;;5051672;28;20932;-66
2021/03/25 01:03:00;;;;;;;1.30;1.10;;;3.40;98.00;;;;;;5049851;28;20563;-66
2021/03/25 01:05:29;;;;;;;1.37;1.20;;;3.50;98.00;;;;;;5050823;28;20521;-66
2021/03/25 01:07:57;;;;;;;1.20;1.03;;;3.40;98.00;;;;;;5049684;28;20462;-66
2021/03/25 01:10:29;;;;;;;3.30;2.10;;;3.20;98.00;;;;;;5051543;28;20455;-66
2021/03/25 01:12:57;;;;;;;1.20;1.00;;;3.00;98.00;;;;;;5050138;28;20456;-66
2021/03/25 01:15:24;;;;;;;1.20;1.07;;;3.10;98.00;;;;;;5051322;28;20462;-66
2021/03/25 01:17:53;;;;;;;1.30;1.20;;;3.00;98.00;;;;;;5049223;28;20868;-66
2021/03/25 01:20:24;;;;;;;1.20;1.13;;;3.10;98.00;;;;;;5051394;28;20979;-66
2021/03/25 01:22:52;;;;;;;3.43;1.67;;;3.10;98.00;;;;;;5049153;28;20603;-66
2021/03/25 01:25:21;;;;;;;1.60;1.33;;;3.00;98.00;;;;;;5051335;28;20876;-66
2021/03/25 01:27:48;;;;;;;1.40;1.23;;;3.00;98.00;;;;;;5049403;28;20462;-66
2021/03/25 01:30:16;;;;;;;1.30;1.20;;;3.00;98.00;;;;;;5051224;28;20983;-66
2021/03/25 01:32:43;;;;;;;1.40;1.30;;;3.20;98.00;;;;;;5048970;28;20908;-66
2021/03/25 01:35:12;;;;;;;5.83;1.83;;;3.30;98.00;;;;;;5049908;28;20846;-66
2021/03/25 01:37:40;;;;;;;1.30;1.10;;;3.40;98.00;;;;;;5048805;28;20529;-66
2021/03/25 01:40:12;;;;;;;1.30;1.20;;;3.40;98.00;;;;;;5050903;28;20974;-66
2021/03/25 01:42:40;;;;;;;1.50;1.20;;;3.30;98.00;;;;;;5048733;28;21015;-66
2021/03/25 01:45:38;;;;;;;1.20;1.03;;;3.10;98.00;;;;;;5050701;28;20600;-66
2021/03/25 01:48:05;;;;;;;1.20;1.00;;;2.90;98.00;;;;;;5048913;28;20875;-66
2021/03/25 01:50:33;;;;;;;1.20;0.93;;;3.00;98.00;;;;;;5050846;28;20450;-66
2021/03/25 01:53:26;;;;;;;1.20;1.07;;;2.70;98.00;;;;;;5048810;28;20485;-66
2021/03/25 01:56:02;;;;;;;2.10;1.57;;;2.80;98.00;;;;;;5050853;28;20518;-66
2021/03/25 01:59:04;;;;;;;1.30;1.00;;;2.70;98.00;;;;;;5048792;28;20895;-66
2021/03/25 02:01:35;;;;;;;4.07;2.03;;;2.70;98.00;;;;;;5041280;28;20964;-67
2021/03/25 02:04:20;;;;;;;1.30;1.10;;;2.80;98.00;;;;;;5050745;28;20485;-66
2021/03/25 02:07:00;;;;;;;1.50;1.50;;;3.00;98.00;;;;;;5048360;28;20481;-66
2021/03/25 02:09:40;;;;;;;2.27;1.43;;;3.00;98.00;;;;;;5050812;28;20465;-66
2021/03/25 02:12:13;;;;;;;1.57;1.50;;;3.10;98.00;;;;;;5048454;28;20481;-66
2021/03/25 02:14:48;;;;;;;3.13;2.93;;;2.90;98.00;;;;;;5050488;28;20465;-66
2021/03/25 02:17:19;;;;;;;1.20;1.20;;;2.90;98.00;;;;;;5048197;28;20453;-66
2021/03/25 02:20:28;;;;;;;1.20;1.00;;;2.80;98.00;;;;;;5050715;28;20879;-66
2021/03/25 02:23:16;;;;;;;1.87;1.20;;;2.90;98.00;;;;;;5048826;28;20956;-66
2021/03/25 02:25:48;;;;;;;1.67;1.57;;;2.70;98.00;;;;;;5050267;28;20525;-66
2021/03/25 02:28:24;;;;;;;1.50;1.10;;;2.70;98.00;;;;;;5048097;28;20947;-66
2021/03/25 02:31:08;;;;;;;1.20;0.90;;;2.80;98.00;;;;;;5050570;28;20461;-66
2021/03/25 02:33:35;;;;;;;1.20;1.00;;;2.70;98.00;;;;;;5048429;28;21018;-66
2021/03/25 02:36:09;;;;;;;1.20;1.10;;;2.70;98.00;;;;;;5050462;28;20493;-66
2021/03/25 02:38:39;;;;;;;1.20;1.10;;;2.60;98.00;;;;;;5048322;28;20446;-66
2021/03/25 02:41:12;;;;;;;1.50;1.27;;;2.50;98.00;;;;;;5050442;28;20674;-66
2021/03/25 02:43:44;;;;;;;1.20;1.10;;;2.40;98.00;;;;;;5048092;28;20587;-66
2021/03/25 02:46:18;;;;;;;1.80;1.47;;;2.30;98.00;;;;;;5065421;28;20513;-66
2021/03/25 02:48:51;;;;;;;1.67;1.30;;;2.30;98.00;;;;;;5048223;28;20846;-66
2021/03/25 02:51:22;;;;;;;1.20;1.03;;;2.20;98.00;;;;;;5050411;28;20967;-66
2021/03/25 02:53:49;;;;;;;2.23;1.63;;;2.20;98.00;;;;;;5047871;28;20496;-66
2021/03/25 02:56:22;;;;;;;1.77;1.77;;;2.10;98.00;;;;;;5050319;28;20510;-66
2021/03/25 02:58:53;;;;;;;1.20;1.00;;;2.10;98.00;;;;;;5051004;28;20465;-66
2021/03/25 03:01:20;;;;;;;1.60;1.57;;;2.10;98.00;;;;;;5054007;28;20453;-66
2021/03/25 03:03:52;;;;;;;1.80;1.70;;;2.40;98.00;;;;;;5051713;28;20508;-66
2021/03/25 03:06:24;;;;;;;1.30;1.20;;;2.50;98.00;;;;;;5054045;28;20517;-66
2021/03/25 03:08:52;;;;;;;1.20;1.03;;;2.50;98.00;;;;;;5050498;28;20555;-66
2021/03/25 03:11:23;;;;;;;1.20;1.03;;;2.60;98.00;;;;;;5054250;28;20464;-66
2021/03/25 03:13:52;;;;;;;1.30;1.13;;;2.70;98.00;;;;;;5051858;28;20493;-66
2021/03/25 03:16:24;;;;;;;2.20;2.03;;;2.70;98.00;;;;;;5054076;28;20528;-66
2021/03/25 03:18:56;;;;;;;1.20;1.00;;;2.40;98.00;;;;;;5051565;28;20457;-66
2021/03/25 03:21:28;;;;;;;1.20;1.10;;;2.10;98.00;;;;;;5054057;28;20456;-66
2021/03/25 03:23:55;;;;;;;2.07;1.77;;;1.90;98.00;;;;;;5051803;28;20464;-66
2021/03/25 03:26:29;;;;;;;1.97;1.27;;;1.80;98.00;;;;;;5053719;28;20496;-66
2021/03/25 03:29:04;;;;;;;1.50;1.20;;;1.80;98.00;;;;;;5051373;28;20781;-66
2021/03/25 03:31:36;;;;;;;1.40;1.33;;;2.00;98.00;;;;;;5052955;28;20981;-67
2021/03/25 03:34:07;;;;;;;1.93;1.27;;;1.80;98.00;;;;;;5053646;28;20464;-66
2021/03/25 03:36:35;;;;;;;1.50;1.10;;;1.80;98.00;;;;;;5052466;28;20852;-67
2021/03/25 03:39:06;;;;;;;1.20;1.03;;;1.80;98.00;;;;;;5053528;28;20453;-66
2021/03/25 03:41:36;;;;;;;1.50;1.40;;;1.80;98.00;;;;;;5052294;28;20504;-67
2021/03/25 03:44:07;;;;;;;1.23;1.20;;;1.90;98.00;;;;;;5053533;28;21116;-66
2021/03/25 03:46:36;;;;;;;3.93;1.70;;;2.00;98.00;;;;;;5052155;28;20938;-66
2021/03/25 03:49:09;;;;;;;1.67;1.57;;;2.00;98.00;;;;;;5053370;28;20458;-66
2021/03/25 03:51:40;;;;;;;1.30;1.23;;;2.10;98.00;;;;;;5051154;28;20972;-66
2021/03/25 03:54:06;;;;;;;1.30;1.10;;;2.10;98.00;;;;;;5053386;28;20457;-66
2021/03/25 03:56:38;;;;;;;1.20;0.90;;;2.20;98.00;;;;;;5052552;28;20458;-66
2021/03/25 03:59:11;;;;;;;4.50;2.13;;;2.10;98.00;;;;;;5053222;28;20458;-66
2021/03/25 04:01:41;;;;;;;1.20;1.13;;;1.80;98.00;;;;;;5050830;28;20503;-66
2021/03/25 04:04:22;;;;;;;1.20;1.13;;;1.70;98.00;;;;;;5053166;28;20496;-66
2021/03/25 04:07:01;;;;;;;1.20;1.00;;;1.60;98.00;;;;;;5051051;28;20525;-66
2021/03/25 04:09:34;;;;;;;1.30;1.10;;;1.40;98.00;;;;;;5051754;28;20502;-66
2021/03/25 04:12:05;;;;;;;1.20;1.10;;;1.60;98.00;;;;;;5050771;28;20488;-66
2021/03/25 04:14:36;;;;;;;1.43;1.10;;;1.50;98.00;;;;;;5052812;28;20943;-66
2021/03/25 04:17:07;;;;;;;1.60;1.57;;;1.40;98.00;;;;;;5050354;28;20453;-66
2021/03/25 04:19:39;;;;;;;1.77;1.43;;;1.40;98.00;;;;;;5052718;28;20468;-66
2021/03/25 04:22:10;;;;;;;3.43;2.80;;;1.30;98.00;;;;;;5050497;28;20458;-66
2021/03/25 04:24:46;;;;;;;1.50;1.40;;;1.30;98.00;;;;;;5052525;28;20453;-66
2021/03/25 04:27:17;;;;;;;1.67;1.27;;;1.30;98.00;;;;;;5050371;28;20830;-66
2021/03/25 04:29:50;;;;;;;2.47;1.53;;;1.20;98.00;;;;;;5052428;28;20487;-66
2021/03/25 04:32:18;;;;;;;1.40;1.30;;;1.40;98.00;;;;;;5050655;28;20947;-66
2021/03/25 04:34:48;;;;;;;1.40;1.30;;;1.50;98.00;;;;;;5052449;28;20529;-66
2021/03/25 04:37:15;;;;;;;1.20;1.00;;;1.70;98.00;;;;;;5050174;28;20464;-66
2021/03/25 04:39:43;;;;;;;1.60;1.60;;;1.60;98.00;;;;;;5052411;28;20806;-65
2021/03/25 04:42:10;;;;;;;1.20;1.00;;;1.60;98.00;;;;;;5051219;28;20532;-66
2021/03/25 04:44:39;;;;;;;1.20;1.00;;;1.40;98.00;;;;;;5052595;28;20479;-66
2021/03/25 04:47:14;;;;;;;1.20;1.10;;;1.30;98.00;;;;;;5050785;28;20543;-66
2021/03/25 04:49:45;;;;;;;1.20;1.00;;;1.40;98.00;;;;;;5052065;28;20491;-66
2021/03/25 04:52:18;;;;;;;2.03;1.90;;;1.40;98.00;;;;;;5048868;28;20559;-66
2021/03/25 04:54:44;;;;;;;1.20;1.00;;;1.40;98.00;;;;;;5052117;28;20449;-66
2021/03/25 04:57:22;;;;;;;1.43;1.30;;;1.50;98.00;;;;;;5050022;28;20488;-66
2021/03/25 04:59:50;;;;;;;1.60;1.30;;;1.50;98.00;;;;;;5052109;28;20496;-66
2021/03/25 05:02:18;;;;;;;1.20;1.00;;;1.40;98.00;;;;;;5050210;28;20461;-66
2021/03/25 05:04:48;;;;;;;1.20;1.00;;;1.40;98.00;;;;;;5052033;28;20464;-66
2021/03/25 05:07:19;;;;;;;1.37;1.33;;;1.30;98.00;;;;;;5049824;28;20517;-66
2021/03/25 05:09:46;;;;;;;1.40;1.20;;;1.30;98.00;;;;;;5051650;28;20457;-66
2021/03/25 05:12:16;;;;;;;1.80;1.70;;;1.20;98.00;;;;;;5049680;28;20508;-66
2021/03/25 05:14:44;;;;;;;1.67;1.20;;;1.40;98.00;;;;;;5051641;28;20469;-66
2021/03/25 05:17:31;;;;;;;1.30;1.10;;;1.50;98.00;;;;;;5049710;28;20464;-66
2021/03/25 05:20:10;;;;;;;3.53;1.70;;;1.50;98.00;;;;;;5051246;28;20457;-66
2021/03/25 05:22:44;;;;;;;1.20;1.00;;;1.50;98.00;;;;;;5049132;28;20514;-66
2021/03/25 05:25:19;;;;;;;1.30;1.10;;;1.40;98.00;;;;;;5051264;28;20534;-66
2021/03/25 05:27:49;;;;;;;1.47;1.30;;;1.40;98.00;;;;;;5049210;28;20484;-67
2021/03/25 05:30:19;;;;;;;2.17;1.50;;;1.50;98.00;;;;;;5051460;28;20959;-66
2021/03/25 05:32:48;;;;;;;1.20;1.00;;;1.60;98.00;;;;;;5049109;28;20465;-66
2021/03/25 05:35:19;;;;;;;1.80;1.30;;;1.70;98.00;;;;;;5051273;28;20851;-66
2021/03/25 05:37:47;;;;;;;2.07;1.57;;;1.50;98.00;;;;;;5048939;28;20493;-66
2021/03/25 05:40:22;;;;;;;1.20;1.10;;;1.40;98.00;;;;;;5051060;28;20484;-66
2021/03/25 05:42:57;;;;;;;1.20;1.00;;;1.30;98.00;;;;;;5048950;28;20974;-65
2021/03/25 05:45:35;;;;;;;1.20;1.10;;;1.30;98.00;;;;;;5050983;28;20464;-65
2021/03/25 05:48:40;;;;;;;1.30;1.10;;;1.40;98.00;;;;;;5048861;28;20492;-66
2021/03/25 05:51:18;;;;;;;2.43;1.40;;;1.40;98.00;;;;;;5050793;28;20471;-66
2021/03/25 05:54:00;;;;;;;1.30;1.27;;;1.50;98.00;;;;;;5048845;28;20456;-66
2021/03/25 05:56:34;;;;;;;1.20;0.90;;;1.60;98.00;;;;;;5050737;28;20476;-66
2021/03/25 05:59:09;;;;;;;1.83;1.73;;;1.70;98.00;;;;;;5048713;28;20522;-65
2021/03/25 06:02:00;;;;;;;1.20;1.00;;;1.80;98.00;;;;;;5050932;28;20467;-66
2021/03/25 06:04:31;;;;;;;3.20;1.50;;;1.80;98.00;;;;;;5050863;28;20484;-65
2021/03/25 06:07:40;;;;;;;1.20;1.00;;;1.70;98.00;;;;;;5048262;28;20495;-66
2021/03/25 06:10:16;;;;;;;1.20;1.00;;;1.60;98.00;;;;;;5039773;28;20535;-66
2021/03/25 06:12:55;;;;;;;1.50;1.20;;;1.60;98.00;;;;;;5048456;28;20502;-66
2021/03/25 06:15:58;;;;;;;1.80;1.70;;;1.70;98.00;;;;;;5050862;28;20507;-66
2021/03/25 06:18:55;;;;;;;1.20;1.00;;;1.80;98.00;;;;;;5048772;28;20457;-66
2021/03/25 06:21:32;;;;;;;1.50;1.20;;;1.90;98.00;;;;;;5048702;28;20460;-66
2021/03/25 06:24:17;;;;;;;1.97;1.30;;;1.90;98.00;;;;;;5048364;28;20493;-66
2021/03/25 06:26:52;;;;;;;1.20;1.00;;;2.00;98.00;;;;;;5050290;28;20900;-66
2021/03/25 06:29:22;;;;;;;1.20;0.93;;;2.20;98.00;;;;;;5050618;28;20490;-66
2021/03/25 06:31:56;;;;;;;3.73;2.00;;;2.20;98.00;;;;;;5049856;28;20469;-66
2021/03/25 06:34:29;;;;;;;1.20;1.00;;;2.40;98.00;;;;;;5054573;28;20454;-66
2021/03/25 06:37:03;;;;;;;2.57;1.43;;;2.70;98.00;;;;;;5052204;28;20506;-66
2021/03/25 06:39:41;;;;;;;1.20;1.10;;;2.70;98.00;;;;;;5054516;28;20457;-66
2021/03/25 06:42:16;;;;;;;3.20;1.83;;;2.80;98.00;;;;;;5052137;28;20463;-66
2021/03/25 06:44:48;;;;;;;1.80;1.40;;;2.90;98.00;;;;;;5054368;28;20530;-66
2021/03/25 06:47:22;;;;;;;1.30;1.30;;;2.90;98.00;;;;;;5052072;28;20975;-66
2021/03/25 06:49:53;;;;;;;1.20;1.00;;;2.90;98.00;;;;;;5054270;28;20501;-66
2021/03/25 06:52:28;;;;;;;2.70;2.00;;;2.90;98.00;;;;;;5051943;28;20948;-66
2021/03/25 06:54:59;;;;;;;1.53;1.20;;;2.90;98.00;;;;;;5054271;28;20457;-66
2021/03/25 06:57:32;;;;;;;1.50;1.43;;;2.90;98.00;;;;;;5052016;28;20450;-66
2021/03/25 06:59:59;;;;;;;1.33;1.27;;;2.90;98.00;;;;;;5054159;28;20463;-66
2021/03/25 07:02:29;;;;;;;1.57;1.47;;;2.90;98.00;;;;;;5051774;28;20493;-66
2021/03/25 07:04:59;;;;;;;3.00;2.53;;;3.10;98.00;;;;;;5054223;28;20456;-66
2021/03/25 07:07:29;;;;;;;1.20;1.07;;;3.20;98.00;;;;;;5051662;28;20575;-66
2021/03/25 07:09:58;;;;;;;2.50;1.70;;;3.30;98.00;;;;;;5053901;28;20500;-65
2021/03/25 07:12:31;;;;;;;1.20;1.10;;;3.50;98.00;;;;;;5051793;28;20454;-66
2021/03/25 07:14:59;;;;;;;1.80;1.43;;;3.50;98.00;;;;;;5054066;28;20453;-66
2021/03/25 07:17:33;;;;;;;1.30;1.20;;;3.50;98.00;;;;;;5051698;28;20474;-66
2021/03/25 07:20:13;;;;;;;3.63;1.50;;;3.40;98.00;;;;;;5053805;28;20710;-66
2021/03/25 07:22:40;;;;;;;2.77;1.97;;;3.50;98.00;;;;;;5051323;28;20457;-66
2021/03/25 07:25:22;;;;;;;3.43;1.23;;;3.60;98.00;;;;;;5068873;28;20461;-66
2021/03/25 07:27:49;;;;;;;1.57;1.40;;;3.70;98.00;;;;;;5051633;28;20539;-65
2021/03/25 07:30:19;;;;;;;1.60;1.17;;;3.90;98.00;;;;;;5053763;28;20461;-66
2021/03/25 07:32:49;;;;;;;1.77;1.67;;;4.00;98.00;;;;;;5051730;28;20772;-66
2021/03/25 07:35:27;;;;;;;1.67;1.37;;;4.20;98.00;;;;;;5053766;28;20462;-66
2021/03/25 07:37:54;;;;;;;1.60;1.30;;;4.50;98.00;;;;;;5052164;28;20451;-66
2021/03/25 07:40:28;;;;;;;1.20;1.00;;;4.70;98.00;;;;;;5053446;28;20461;-66
2021/03/25 07:42:55;;;;;;;1.20;1.10;;;5.00;98.00;;;;;;5051120;28;20469;-65
2021/03/25 07:45:26;;;;;;;1.50;1.50;;;5.10;98.00;;;;;;5053282;28;20899;-66
2021/03/25 07:47:55;;;;;;;3.50;2.13;;;5.10;98.00;;;;;;5051059;28;20979;-66
2021/03/25 07:50:28;;;;;;;1.50;1.40;;;5.30;98.00;;;;;;5053093;28;20460;-66
2021/03/25 07:52:55;;;;;;;4.70;1.80;;;5.50;98.00;;;;;;5050958;28;20456;-66
2021/03/25 07:55:25;;;;;;;1.30;1.30;;;5.70;98.00;;;;;;5053029;28;20466;-66
2021/03/25 07:57:53;;;;;;;2.80;2.60;;;5.90;98.00;;;;;;5050910;28;20454;-66
2021/03/25 08:00:30;;;;;;;4.03;1.90;;;6.00;98.00;;;;;;5068142;28;20463;-66
2021/03/25 08:03:15;;;;;;;2.27;1.40;;;6.20;98.00;;;;;;5050903;28;20494;-66
2021/03/25 08:05:42;;;;;;;1.50;1.30;;;6.20;98.00;;;;;;5052764;28;20474;-66
2021/03/25 08:08:22;;;;;;;1.77;1.30;;;6.40;98.00;;;;;;5050792;28;20463;-66
2021/03/25 08:10:51;;;;;;;1.87;1.50;;;6.60;98.00;;;;;;5052675;28;20458;-66
2021/03/25 08:13:22;;;;;;;1.40;1.30;;;6.70;98.00;;;;;;5050873;28;20460;-66
2021/03/25 08:15:50;;;;;;;1.33;1.30;;;6.70;98.00;;;;;;5052620;28;20794;-66
2021/03/25 08:18:43;;;;;;;1.70;1.50;;;6.90;98.00;;;;;;5050226;28;20504;-67
2021/03/25 08:21:21;;;;;;;3.53;2.03;;;7.10;98.00;;;;;;5052659;28;20460;-67
2021/03/25 08:24:20;;;;;;;2.17;2.00;;;7.20;98.00;;;;;;5050448;28;20511;-66
2021/03/25 08:27:06;;;;;;;1.73;1.30;;;7.40;98.00;;;;;;5049668;28;20542;-67
2021/03/25 08:29:40;;;;;;;2.10;1.80;;;7.70;98.00;;;;;;5051791;28;20460;-68
2021/03/25 08:32:18;;;;;;;1.73;1.63;;;8.00;98.00;;;;;;5049867;28;20466;-67
2021/03/25 08:35:13;;;;;;;1.97;1.83;;;8.20;98.00;;;;;;5052008;28;20468;-67
2021/03/25 08:37:55;;;;;;;1.73;1.37;;;8.50;98.00;;;;;;5049716;28;20458;-67
2021/03/25 08:40:31;;;;;;;1.33;1.23;;;8.70;98.00;;;;;;5051479;28;20493;-67
2021/03/25 08:43:01;;;;;;;5.93;1.53;;;8.90;98.00;;;;;;5049729;28;20822;-66
2021/03/25 08:45:33;;;;;;;2.07;1.50;;;9.10;98.00;;;;;;5051615;28;20466;-69
2021/03/25 08:48:04;;;;;;;1.87;1.80;;;9.30;98.00;;;;;;5049634;28;20589;-69
2021/03/25 08:50:40;;;;;;;3.20;2.17;;;9.40;98.00;;;;;;5051376;28;20988;-68
2021/03/25 08:53:24;;;;;;;5.30;1.93;;;9.50;98.00;;;;;;5049389;28;20455;-68
2021/03/25 08:55:53;;;;;;;2.17;1.50;;;9.60;98.00;;;;;;5051044;28;20957;-67
2021/03/25 08:58:41;;;;;;;2.00;1.87;;;9.60;98.00;;;;;;5049543;28;20457;-67
2021/03/25 09:01:13;;;;;;;1.20;1.20;;;9.90;97.70;;;;;;5051723;28;20455;-68
2021/03/25 09:03:44;;;;;;;5.03;2.30;;;10.00;97.10;;;;;;5049310;28;20457;-67
2021/03/25 09:06:18;;;;;;;4.80;2.27;;;10.20;96.50;;;;;;5051087;28;20536;-66
2021/03/25 09:08:47;;;;;;;2.90;2.17;;;10.40;96.40;;;;;;5049368;28;20461;-67
2021/03/25 09:11:16;;;;;;;1.43;1.43;;;10.50;96.60;;;;;;5050944;28;20461;-67
2021/03/25 09:13:46;;;;;;;4.90;2.07;;;10.70;96.30;;;;;;5049031;28;20995;-67
2021/03/25 09:16:24;;;;;;;2.23;1.63;;;10.90;95.30;;;;;;5051151;28;20878;-67
2021/03/25 09:18:52;;;;;;;1.50;1.47;;;11.00;95.30;;;;;;5048798;28;20462;-67
2021/03/25 09:21:23;;;;;;;3.47;1.70;;;11.30;95.00;;;;;;5050650;28;20468;-68
2021/03/25 09:24:11;;;;;;;1.60;1.53;;;11.40;93.60;;;;;;5048299;28;20496;-67
2021/03/25 09:27:03;;;;;;;3.20;1.30;;;11.60;92.60;;;;;;5050965;28;20836;-67
2021/03/25 09:29:34;;;;;;;1.97;1.57;;;11.80;91.90;;;;;;5048795;28;20484;-68
2021/03/25 09:32:33;;;;;;;1.20;1.10;;;12.00;91.70;;;;;;5051101;28;20459;-67
2021/03/25 09:35:01;;;;;;;1.40;1.20;;;12.20;91.60;;;;;;5050910;28;20907;-67
2021/03/25 09:37:29;;;;;;;1.40;1.20;;;12.50;90.70;;;;;;5049328;28;20458;-67
2021/03/25 09:40:28;;;;;;;3.87;1.60;;;12.80;90.10;;;;;;5050732;28;20501;-67
2021/03/25 09:43:40;;;;;;;2.03;1.40;;;13.10;88.60;;;;;;5047661;28;20903;-68
2021/03/25 09:46:33;;;;;;;1.50;1.20;;;13.30;87.30;;;;;;5050378;28;20457;-67
2021/03/25 09:49:24;;;;;;;1.60;1.30;;;13.70;85.30;;;;;;5048679;28;20461;-67
2021/03/25 09:52:18;;;;;;;1.40;1.40;;;14.00;85.90;;;;;;5050567;28;20455;-68
2021/03/25 09:54:48;;;;;;;1.30;1.20;;;14.30;83.50;;;;;;5050573;28;20458;-67
2021/03/25 09:57:26;;;;;;;1.30;1.23;;;14.60;82.40;;;;;;5063563;28;20476;-68
2021/03/25 09:59:54;;;;;;;1.73;1.23;;;14.80;82.10;;;;;;5050401;28;20456;-68
2021/03/25 10:02:52;;;;;;;1.20;1.10;;;15.00;79.50;;;;;;5048437;28;20862;-68
2021/03/25 10:05:35;;;;;;;3.53;1.83;;;15.20;79.10;;;;;;5048031;28;20603;-67
2021/03/25 10:08:03;;;;;;;1.90;1.57;;;15.50;77.60;;;;;;5047216;28;20499;-68
2021/03/25 10:10:36;;;;;;;1.40;1.40;;;15.60;76.70;;;;;;5050139;28;20593;-68
2021/03/25 10:13:37;;;;;;;2.37;1.60;;;15.70;76.20;;;;;;5048498;28;20972;-68
2021/03/25 10:16:06;;;;;;;1.80;1.67;;;15.80;76.20;;;;;;5050647;28;20454;-68
2021/03/25 10:18:50;;;;;;;1.77;1.67;;;16.00;76.50;;;;;;5048059;28;20465;-67
2021/03/25 10:21:19;;;;;;;1.87;1.50;;;16.10;76.80;;;;;;5049894;28;20524;-67
2021/03/25 10:24:01;;;;;;;2.07;1.37;;;16.10;74.90;;;;;;5048896;28;20483;-67
2021/03/25 10:26:34;;;;;;;1.40;1.30;;;16.30;74.40;;;;;;5050434;28;20492;-67
2021/03/25 10:29:04;;;;;;;2.07;1.60;;;16.50;74.00;;;;;;5048115;28;20937;-67
2021/03/25 10:31:39;;;;;;;4.03;1.83;;;16.70;73.40;;;;;;5050306;28;20464;-67
2021/03/25 10:34:13;;;;;;;2.20;1.50;;;16.60;72.00;;;;;;5048147;28;20947;-69
2021/03/25 10:36:44;;;;;;;1.87;1.50;;;16.80;73.20;;;;;;5050811;28;20449;-67
2021/03/25 10:39:21;;;;;;;2.70;2.07;;;16.70;71.20;;;;;;5047842;28;20488;-67
2021/03/25 10:41:48;;;;;;;1.20;1.10;;;16.80;72.10;;;;;;5050678;28;20860;-67
2021/03/25 10:44:20;;;;;;;1.57;1.53;;;17.00;72.20;;;;;;5048096;28;20529;-67
2021/03/25 10:46:47;;;;;;;1.20;1.10;;;17.20;69.40;;;;;;5050388;28;20496;-67
2021/03/25 10:49:18;;;;;;;2.30;1.80;;;17.30;68.80;;;;;;5047598;28;20485;-67
2021/03/25 10:51:47;;;;;;;1.60;1.40;;;17.50;68.60;;;;;;5050304;28;20511;-66
2021/03/25 10:54:27;;;;;;;1.50;1.40;;;17.60;66.80;;;;;;5048045;28;20460;-68
2021/03/25 10:57:03;;;;;;;1.70;1.37;;;17.70;67.10;;;;;;5050476;28;20950;-68
2021/03/25 10:59:31;;;;;;;2.37;1.50;;;17.90;66.20;;;;;;5046635;28;20462;-68
2021/03/25 11:01:59;;;;;;;1.60;1.60;;;17.90;67.20;;;;;;5050188;28;20542;-67
2021/03/25 11:04:28;;;;;;;1.20;1.10;;;18.10;66.20;;;;;;5047817;28;20566;-67
2021/03/25 11:06:55;;;;;;;1.30;1.20;;;18.30;65.90;;;;;;5049940;28;20532;-67
2021/03/25 11:09:26;;;;;;;1.30;1.27;;;18.50;64.70;;;;;;5047843;28;20477;-67
2021/03/25 11:11:55;;;;;;;2.20;1.40;;;18.60;65.30;;;;;;5050449;28;20549;-67
2021/03/25 11:14:30;;;;;;;1.37;1.20;;;18.70;65.40;;;;;;5047904;28;20452;-67
2021/03/25 11:17:02;;;;;;;1.87;1.73;;;18.90;65.40;;;;;;5050259;28;21004;-67
2021/03/25 11:19:30;;;;;;;2.10;1.53;;;19.00;66.70;;;;;;5050312;28;20939;-67
2021/03/25 11:21:58;;;;;;;1.30;1.17;;;19.20;66.20;;;;;;5054139;28;20510;-67
2021/03/25 11:24:27;;;;;;;1.40;1.33;;;19.30;65.00;;;;;;5051314;28;20463;-67
2021/03/25 11:26:55;;;;;;;1.33;1.23;;;19.40;64.20;;;;;;5054142;28;20923;-67
2021/03/25 11:29:24;;;;;;;1.40;1.23;;;19.50;64.60;;;;;;5051632;28;20478;-67
2021/03/25 11:32:10;;;;;;;2.03;1.30;;;19.50;63.90;;;;;;5053873;28;21018;-67
2021/03/25 11:34:39;;;;;;;1.77;1.40;;;19.50;63.60;;;;;;5066663;28;20454;-67
2021/03/25 11:37:21;;;;;;;1.90;1.60;;;19.40;63.80;;;;;;5069034;28;20515;-67
2021/03/25 11:40:00;;;;;;;1.30;1.10;;;19.60;63.90;;;;;;5053415;28;20458;-67
2021/03/25 11:42:30;;;;;;;2.43;1.40;;;19.60;63.70;;;;;;5051441;28;20939;-68
2021/03/25 11:44:57;;;;;;;2.63;1.63;;;19.50;64.90;;;;;;5053586;28;20564;-68
2021/03/25 11:47:43;;;;;;;3.53;1.57;;;19.60;64.50;;;;;;5051747;28;20564;-68
2021/03/25 11:50:32;;;;;;;1.30;1.20;;;19.60;65.00;;;;;;5053790;28;20453;-68
2021/03/25 11:53:04;;;;;;;2.37;1.47;;;19.80;63.40;;;;;;5051263;28;20458;-68
2021/03/25 11:55:35;;;;;;;4.23;1.73;;;20.00;63.50;;;;;;5053380;28;20461;-67
2021/03/25 11:58:16;;;;;;;13.03;1.40;;;20.00;62.60;;;;;;5051184;28;20811;-67
2021/03/25 12:00:57;;;;;;;2.27;1.60;;;19.90;63.30;;;;;;5053067;28;20461;-68
2021/03/25 12:03:28;;;;;;;2.23;1.80;;;19.90;64.70;;;;;;5051095;28;21199;-68
2021/03/25 12:05:57;;;;;;;1.83;1.43;;;19.80;63.60;;;;;;5052037;28;20458;-68
2021/03/25 12:08:33;;;;;;;2.80;1.97;;;19.90;63.50;;;;;;5065873;28;20489;-68
2021/03/25 12:11:05;;;;;;;1.90;1.47;;;19.90;63.10;;;;;;5051782;28;20457;-69
2021/03/25 12:13:33;;;;;;;2.17;1.47;;;20.00;63.10;;;;;;5050701;28;20489;-68
2021/03/25 12:16:00;;;;;;;1.97;1.80;;;20.20;64.40;;;;;;5053113;28;20454;-67
2021/03/25 12:18:29;;;;;;;2.40;2.20;;;20.20;61.80;;;;;;5050796;28;20446;-67
2021/03/25 12:21:03;;;;;;;5.20;2.03;;;20.20;63.20;;;;;;5068419;28;21162;-67
2021/03/25 12:23:32;;;;;;;2.70;1.90;;;20.00;61.70;;;;;;5050631;28;20539;-67
2021/03/25 12:26:01;;;;;;;3.00;1.73;;;19.80;60.90;;;;;;5053265;28;20453;-67
2021/03/25 12:28:28;;;;;;;2.70;1.50;;;19.60;64.00;;;;;;5050661;28;20485;-67
2021/03/25 12:30:56;;;;;;;1.90;1.50;;;19.60;65.40;;;;;;5051627;28;20468;-69
2021/03/25 12:33:25;;;;;;;1.63;1.50;;;19.70;64.10;;;;;;5050442;28;20485;-68
2021/03/25 12:35:53;;;;;;;2.33;1.50;;;19.80;64.10;;;;;;5052669;28;20454;-67
2021/03/25 12:38:21;;;;;;;2.17;1.77;;;19.90;64.40;;;;;;5050515;28;21259;-67
2021/03/25 12:40:48;;;;;;;2.03;1.60;;;19.80;63.20;;;;;;5052162;28;20457;-67
2021/03/25 12:43:17;;;;;;;2.90;1.90;;;19.90;64.70;;;;;;5050477;28;20524;-67
2021/03/25 12:45:49;;;;;;;2.87;1.60;;;19.80;63.40;;;;;;5052721;28;20457;-67
2021/03/25 12:48:17;;;;;;;2.10;1.70;;;19.80;64.30;;;;;;5064174;28;20496;-68
2021/03/25 12:50:45;;;;;;;1.80;1.30;;;19.70;63.90;;;;;;5067314;28;20848;-68
2021/03/25 12:53:12;;;;;;;1.90;1.47;;;19.80;64.10;;;;;;5051115;28;20473;-68
2021/03/25 12:55:41;;;;;;;1.73;1.30;;;19.90;63.70;;;;;;5052489;28;20461;-68
2021/03/25 12:58:18;;;;;;;1.73;1.43;;;20.10;63.20;;;;;;5050266;28;20489;-68
2021/03/25 13:00:45;;;;;;;1.60;1.40;;;20.40;62.90;;;;;;5052036;28;20457;-68
2021/03/25 13:03:13;;;;;;;1.80;1.47;;;20.40;62.50;;;;;;5050305;28;20489;-68
2021/03/25 13:05:40;;;;;;;2.23;1.37;;;20.40;62.20;;;;;;5052417;28;20588;-68
2021/03/25 13:08:06;;;;;;;2.37;1.70;;;20.40;63.40;;;;;;5065589;28;20489;-68
2021/03/25 13:10:36;;;;;;;2.17;1.90;;;20.30;62.70;;;;;;5052028;28;20454;-68
2021/03/25 13:13:05;;;;;;;2.80;1.63;;;20.40;62.60;;;;;;5065305;28;20461;-68
2021/03/25 13:15:33;;;;;;;2.37;1.70;;;20.60;63.40;;;;;;5051790;28;20461;-68
2021/03/25 13:18:00;;;;;;;2.93;1.83;;;20.80;63.10;;;;;;5050140;28;20457;-68
2021/03/25 13:20:27;;;;;;;2.60;2.20;;;20.80;62.50;;;;;;5051552;28;20458;-68
2021/03/25 13:22:54;;;;;;;1.93;1.50;;;20.60;61.50;;;;;;5050000;28;20461;-68
2021/03/25 13:25:24;;;;;;;2.80;1.60;;;20.50;63.70;;;;;;5051806;28;20546;-68